Time;durP1;ratioP1;P1;durP2;ratioP2;P2;SDS_P1;SDS_P2;PMS_P1;PMS_P2;Temp;Humidity;BMP_temperature;BMP_pressure;BME280_temperature;BME280_humidity;BME280_pressure;Samples;Min_cycle;Max_cycle;Signal;HPM_P1;HPM_P2
2023/06/12 00:03:01;;;;;;;13.05;8.35;;;;;;;;;;8385000;28;20048;-88
2023/06/12 00:07:04;;;;;;;14.15;8.07;;;;;;;;;;8378954;28;20530;-89
2023/06/12 00:11:09;;;;;;;16.95;9.70;;;;;;;;;;8394109;28;20048;-91
2023/06/12 00:15:15;;;;;;;15.93;8.80;;;;;;;;;;8389549;28;20068;-87
2023/06/12 00:19:18;;;;;;;11.70;7.18;;;;;;;;;;8395716;28;20045;-89
2023/06/12 00:23:24;;;;;;;13.57;8.05;;;;;;;;;;8400623;28;20040;-90
2023/06/12 00:27:27;;;;;;;12.48;7.72;;;;;;;;;;8385327;28;20518;-89
2023/06/12 00:31:32;;;;;;;17.20;8.20;;;;;;;;;;8416678;28;20480;-87
2023/06/12 00:35:35;;;;;;;14.43;8.23;;;;;;;;;;8415387;28;20036;-89
2023/06/12 00:39:38;;;;;;;11.23;7.35;;;;;;;;;;8413728;28;20048;-89
2023/06/12 00:43:41;;;;;;;10.93;7.03;;;;;;;;;;8393417;28;20122;-89
2023/06/12 00:47:47;;;;;;;11.50;6.80;;;;;;;;;;8398322;28;20045;-93
2023/06/12 00:51:52;;;;;;;12.05;7.90;;;;;;;;;;8401249;28;20044;-94
2023/06/12 00:55:55;;;;;;;12.10;7.63;;;;;;;;;;8406736;28;20392;-92
2023/06/12 00:59:58;;;;;;;13.23;8.32;;;;;;;;;;8394383;28;20128;-89
2023/06/12 01:04:03;;;;;;;14.57;7.93;;;;;;;;;;8430709;28;20044;-89
2023/06/12 01:08:22;;;;;;;16.30;8.50;;;;;;;;;;8414185;28;20044;-89
2023/06/12 01:12:26;;;;;;;14.55;8.45;;;;;;;;;;8401865;28;20056;-94
2023/06/12 01:16:29;;;;;;;15.18;8.57;;;;;;;;;;8416153;28;20457;-88
2023/06/12 01:20:33;;;;;;;15.40;8.85;;;;;;;;;;8429449;28;20135;-88
2023/06/12 01:24:58;;;;;;;13.38;8.23;;;;;;;;;;8429466;28;20089;-92
2023/06/12 01:29:34;;;;;;;15.82;8.05;;;;;;;;;;8429208;28;20036;-88
2023/06/12 01:33:40;;;;;;;13.25;8.13;;;;;;;;;;8410621;28;20056;-89
2023/06/12 01:37:47;;;;;;;18.05;8.07;;;;;;;;;;8385090;28;20060;-88
2023/06/12 01:41:51;;;;;;;12.30;7.10;;;;;;;;;;8423664;28;20044;-90
2023/06/12 01:45:54;;;;;;;12.20;7.63;;;;;;;;;;8422133;28;20075;-89
2023/06/12 01:49:59;;;;;;;11.30;7.60;;;;;;;;;;8423118;28;20123;-89
2023/06/12 01:54:02;;;;;;;12.68;7.43;;;;;;;;;;8416074;28;20071;-88
2023/06/12 01:58:04;;;;;;;11.77;7.40;;;;;;;;;;8414609;28;20403;-88
2023/06/12 02:02:07;;;;;;;13.82;7.75;;;;;;;;;;8409627;28;20048;-95
2023/06/12 02:06:12;;;;;;;13.63;7.72;;;;;;;;;;8422629;28;20083;-89
2023/06/12 02:10:15;;;;;;;11.27;7.03;;;;;;;;;;8416964;28;20503;-89
2023/06/12 02:14:18;;;;;;;12.73;7.03;;;;;;;;;;8414344;28;20122;-89
2023/06/12 02:18:21;;;;;;;12.15;7.03;;;;;;;;;;8409014;28;20127;-89
2023/06/12 02:22:25;;;;;;;87.25;32.65;;;;;;;;;;8423884;28;20440;-88
2023/06/12 02:26:28;;;;;;;79.35;29.98;;;;;;;;;;8428537;28;20119;-92
2023/06/12 02:30:31;;;;;;;12.88;7.45;;;;;;;;;;8415323;28;20161;-88
2023/06/12 02:34:34;;;;;;;14.05;8.25;;;;;;;;;;8412601;28;20123;-89
2023/06/12 02:38:39;;;;;;;13.85;7.15;;;;;;;;;;8422785;28;20571;-88
2023/06/12 02:42:41;;;;;;;12.98;7.45;;;;;;;;;;8429428;28;20044;-88
2023/06/12 02:46:52;;;;;;;14.13;7.43;;;;;;;;;;8431231;28;20051;-88
2023/06/12 02:50:55;;;;;;;33.80;18.00;;;;;;;;;;8434795;28;20046;-89
2023/06/12 02:54:59;;;;;;;33.92;18.60;;;;;;;;;;8433752;28;20098;-92
2023/06/12 02:59:02;;;;;;;35.15;21.92;;;;;;;;;;8406426;28;20436;-88
2023/06/12 03:03:06;;;;;;;32.50;19.95;;;;;;;;;;8405403;28;20056;-91
2023/06/12 03:07:12;;;;;;;24.70;14.93;;;;;;;;;;8435274;28;20058;-88
2023/06/12 03:11:16;;;;;;;24.45;13.18;;;;;;;;;;8422702;28;20506;-88
2023/06/12 03:15:19;;;;;;;14.93;9.98;;;;;;;;;;8423084;28;20495;-88
2023/06/12 03:19:25;;;;;;;14.02;9.07;;;;;;;;;;8422516;28;20484;-89
2023/06/12 03:23:30;;;;;;;13.13;8.20;;;;;;;;;;8436483;28;20140;-89
2023/06/12 03:27:35;;;;;;;12.77;7.97;;;;;;;;;;8409822;28;20049;-89
2023/06/12 03:31:38;;;;;;;11.93;8.00;;;;;;;;;;8437003;28;20569;-89
2023/06/12 03:35:41;;;;;;;13.20;8.15;;;;;;;;;;8425200;28;20082;-88
2023/06/12 03:39:44;;;;;;;13.93;8.68;;;;;;;;;;8437378;28;20056;-88
2023/06/12 03:43:49;;;;;;;19.80;15.45;;;;;;;;;;8426372;28;20035;-91
2023/06/12 03:47:52;;;;;;;15.35;9.15;;;;;;;;;;8440194;28;20051;-89
2023/06/12 03:51:57;;;;;;;15.10;10.73;;;;;;;;;;8438460;28;20464;-89
2023/06/12 03:56:01;;;;;;;13.27;8.68;;;;;;;;;;8426260;28;20078;-89
2023/06/12 04:00:08;;;;;;;11.27;7.45;;;;;;;;;;8437412;28;20048;-89
2023/06/12 04:04:11;;;;;;;16.95;10.65;;;;;;;;;;8423917;28;20048;-89
2023/06/12 04:08:13;;;;;;;15.38;7.40;;;;;;;;;;8417438;28;20052;-90
2023/06/12 04:12:17;;;;;;;11.68;6.90;;;;;;;;;;8427516;28;20131;-90
2023/06/12 04:16:21;;;;;;;9.98;7.13;;;;;;;;;;8434744;28;20052;-90
2023/06/12 04:20:26;;;;;;;8.43;5.63;;;;;;;;;;8423112;28;20067;-88
2023/06/12 04:24:30;;;;;;;8.20;5.35;;;;;;;;;;8422870;28;20496;-89
2023/06/12 04:28:33;;;;;;;9.27;5.75;;;;;;;;;;8435262;28;20537;-89
2023/06/12 04:32:39;;;;;;;7.80;5.50;;;;;;;;;;8420209;28;20503;-89
2023/06/12 04:36:43;;;;;;;11.35;5.68;;;;;;;;;;8414592;28;20056;-89
2023/06/12 04:40:46;;;;;;;7.18;5.53;;;;;;;;;;8421689;28;20373;-89
2023/06/12 04:44:49;;;;;;;8.85;5.13;;;;;;;;;;8422689;28;20071;-89
2023/06/12 04:48:53;;;;;;;7.57;5.40;;;;;;;;;;8438092;28;20079;-89
2023/06/12 04:52:57;;;;;;;7.28;5.00;;;;;;;;;;8408331;28;20040;-89
2023/06/12 04:57:02;;;;;;;11.40;5.05;;;;;;;;;;8431524;28;20452;-89
2023/06/12 05:01:05;;;;;;;8.20;4.07;;;;;;;;;;8418003;28;20071;-89
2023/06/12 05:05:10;;;;;;;10.45;4.50;;;;;;;;;;8419976;28;20098;-90
2023/06/12 05:09:13;;;;;;;6.97;4.03;;;;;;;;;;8434562;28;20526;-89
2023/06/12 05:13:16;;;;;;;7.32;4.22;;;;;;;;;;8428682;28;20795;-89
2023/06/12 05:17:19;;;;;;;6.72;3.95;;;;;;;;;;8433492;28;20131;-90
2023/06/12 05:21:25;;;;;;;7.05;4.18;;;;;;;;;;8385653;28;20044;-90
2023/06/12 05:25:31;;;;;;;5.72;4.00;;;;;;;;;;8404185;28;20067;-90
2023/06/12 05:29:34;;;;;;;7.15;3.83;;;;;;;;;;8378960;28;20059;-90
2023/06/12 05:33:40;;;;;;;7.90;4.13;;;;;;;;;;8419316;28;20055;-90
2023/06/12 05:37:45;;;;;;;6.80;3.80;;;;;;;;;;8413267;28;20056;-90
2023/06/12 05:41:51;;;;;;;18.20;7.75;;;;;;;;;;8407309;28;20048;-90
2023/06/12 05:45:55;;;;;;;8.02;4.10;;;;;;;;;;8441342;28;20047;-90
2023/06/12 05:50:06;;;;;;;5.90;3.90;;;;;;;;;;8415044;28;20549;-90
2023/06/12 05:54:11;;;;;;;7.00;4.20;;;;;;;;;;8416746;28;20036;-90
2023/06/12 05:58:14;;;;;;;8.43;4.13;;;;;;;;;;8426031;28;20044;-89
2023/06/12 06:02:17;;;;;;;10.88;8.18;;;;;;;;;;8420307;28;20164;-89
2023/06/12 06:06:23;;;;;;;7.35;3.70;;;;;;;;;;8415657;28;20048;-89
2023/06/12 06:10:28;;;;;;;7.28;4.30;;;;;;;;;;8411356;28;20131;-89
2023/06/12 06:14:31;;;;;;;4.85;3.40;;;;;;;;;;8429866;28;20044;-89
2023/06/12 06:18:34;;;;;;;9.60;3.92;;;;;;;;;;8415415;28;20059;-89
2023/06/12 06:22:43;;;;;;;5.13;3.28;;;;;;;;;;8408298;28;20097;-90
2023/06/12 06:26:48;;;;;;;5.75;3.50;;;;;;;;;;8423300;28;20063;-89
2023/06/12 06:30:51;;;;;;;6.30;2.92;;;;;;;;;;8429335;28;20044;-88
2023/06/12 06:34:54;;;;;;;5.55;3.40;;;;;;;;;;8422152;28;20040;-89
2023/06/12 06:38:57;;;;;;;5.40;3.08;;;;;;;;;;8421712;28;20048;-89
2023/06/12 06:43:01;;;;;;;4.60;2.70;;;;;;;;;;8435860;28;20036;-89
2023/06/12 06:47:05;;;;;;;5.90;2.78;;;;;;;;;;8422654;28;20051;-89
2023/06/12 06:51:08;;;;;;;4.07;2.65;;;;;;;;;;8436110;28;20040;-89
2023/06/12 06:55:11;;;;;;;9.50;4.15;;;;;;;;;;8437428;28;20059;-89
2023/06/12 06:59:15;;;;;;;11.95;6.20;;;;;;;;;;8427140;28;20051;-89
2023/06/12 07:03:18;;;;;;;2.55;2.03;;;;;;;;;;8411229;28;20045;-91
2023/06/12 07:07:25;;;;;;;4.60;2.28;;;;;;;;;;8403846;28;20103;-91
2023/06/12 07:11:33;;;;;;;5.50;2.72;;;;;;;;;;8454485;28;20112;-96
2023/06/12 07:15:48;;;;;;;4.35;2.17;;;;;;;;;;8424444;28;20049;-96
2023/06/12 07:19:52;;;;;;;3.63;2.08;;;;;;;;;;8454010;28;20047;-91
2023/06/12 07:24:36;;;;;;;6.30;2.20;;;;;;;;;;8454770;28;20051;-90
2023/06/12 07:28:40;;;;;;;3.00;1.90;;;;;;;;;;8386207;28;20059;-93
2023/06/12 07:32:46;;;;;;;4.22;1.90;;;;;;;;;;8435183;28;20048;-90
2023/06/12 07:36:52;;;;;;;4.55;2.08;;;;;;;;;;8417919;28;20075;-89
2023/06/12 07:40:55;;;;;;;4.65;2.00;;;;;;;;;;8444538;28;20435;-89
2023/06/12 07:45:02;;;;;;;5.57;2.17;;;;;;;;;;8446859;28;20048;-88
2023/06/12 07:49:10;;;;;;;;;;;;;;;;;;8455333;28;20395;-94
2023/06/12 07:53:13;;;;;;;2.00;1.70;;;;;;;;;;8449377;28;19920;-94
2023/06/12 07:57:17;;;;;;;2.67;1.55;;;;;;;;;;8443989;28;20113;-93
2023/06/12 08:01:22;;;;;;;7.18;1.90;;;;;;;;;;8411828;28;20048;-92
2023/06/12 08:05:27;;;;;;;3.15;1.83;;;;;;;;;;8424682;28;20067;-94
2023/06/12 08:09:31;;;;;;;2.90;1.70;;;;;;;;;;8419605;28;20036;-88
2023/06/12 08:13:34;;;;;;;3.03;2.03;;;;;;;;;;8394858;28;20060;-90
2023/06/12 08:17:41;;;;;;;3.40;2.13;;;;;;;;;;8441390;28;20044;-96
2023/06/12 08:21:47;;;;;;;4.13;2.10;;;;;;;;;;8425873;28;20043;-90
2023/06/12 08:25:52;;;;;;;4.20;1.67;;;;;;;;;;8432233;28;20044;-89
2023/06/12 08:29:55;;;;;;;3.45;1.90;;;;;;;;;;8428822;28;20043;-93
2023/06/12 08:33:58;;;;;;;5.07;2.20;;;;;;;;;;8435351;28;20123;-89
2023/06/12 08:38:08;;;;;;;4.65;2.20;;;;;;;;;;8435923;28;20061;-90
2023/06/12 08:42:18;;;;;;;6.15;2.15;;;;;;;;;;8415270;28;20483;-90
2023/06/12 08:46:22;;;;;;;3.55;2.03;;;;;;;;;;8432789;28;20135;-91
2023/06/12 08:50:26;;;;;;;5.05;2.00;;;;;;;;;;8397070;28;20044;-93
2023/06/12 08:54:35;;;;;;;7.80;2.13;;;;;;;;;;8421732;28;20451;-89
2023/06/12 08:58:38;;;;;;;3.10;1.90;;;;;;;;;;8408027;28;20055;-89
2023/06/12 09:02:46;;;;;;;4.75;2.25;;;;;;;;;;8398617;28;20044;-91
2023/06/12 09:06:52;;;;;;;4.40;2.20;;;;;;;;;;8386093;28;20073;-89
2023/06/12 09:10:58;;;;;;;6.38;2.28;;;;;;;;;;8399479;28;20044;-89
2023/06/12 09:15:11;;;;;;;3.33;2.40;;;;;;;;;;8411696;28;20257;-90
2023/06/12 09:19:15;;;;;;;5.28;2.00;;;;;;;;;;8390635;28;20053;-92
2023/06/12 09:23:21;;;;;;;8.25;2.63;;;;;;;;;;8397860;28;20058;-90
2023/06/12 09:27:41;;;;;;;5.05;2.50;;;;;;;;;;8389877;28;20679;-91
2023/06/12 09:31:47;;;;;;;3.55;2.28;;;;;;;;;;8386795;28;20548;-90
2023/06/12 09:35:54;;;;;;;3.40;2.00;;;;;;;;;;8392799;28;20126;-90
2023/06/12 09:40:10;;;;;;;4.57;2.20;;;;;;;;;;8403934;28;20044;-91
2023/06/12 09:44:24;;;;;;;6.05;2.30;;;;;;;;;;8394685;28;20056;-89
2023/06/12 09:48:33;;;;;;;3.63;2.00;;;;;;;;;;8389247;28;20044;-89
2023/06/12 09:52:42;;;;;;;4.55;2.20;;;;;;;;;;8393301;28;20044;-90
2023/06/12 09:56:46;;;;;;;4.13;1.90;;;;;;;;;;8402714;28;20052;-88
2023/06/12 10:00:55;;;;;;;4.57;2.40;;;;;;;;;;8402870;28;20044;-89
2023/06/12 10:05:08;;;;;;;4.78;2.30;;;;;;;;;;8391838;28;20049;-88
2023/06/12 10:09:14;;;;;;;4.63;2.15;;;;;;;;;;8389354;28;20044;-88
2023/06/12 10:13:21;;;;;;;4.35;2.10;;;;;;;;;;8405257;28;20098;-89
2023/06/12 10:17:29;;;;;;;6.10;2.17;;;;;;;;;;8393063;28;20128;-89
2023/06/12 10:21:36;;;;;;;9.05;2.65;;;;;;;;;;8395911;28;20057;-89
2023/06/12 10:25:40;;;;;;;4.72;2.45;;;;;;;;;;8396625;28;20040;-92
2023/06/12 10:29:56;;;;;;;4.05;2.50;;;;;;;;;;8398974;28;20045;-89
2023/06/12 10:34:10;;;;;;;4.32;2.33;;;;;;;;;;8390960;28;20468;-89
2023/06/12 10:38:24;;;;;;;5.28;2.15;;;;;;;;;;8407180;28;20060;-90
2023/06/12 10:42:40;;;;;;;3.78;2.60;;;;;;;;;;8402130;28;20041;-88
2023/06/12 10:46:47;;;;;;;4.20;2.20;;;;;;;;;;8405435;28;20055;-90
2023/06/12 10:51:17;;;;;;;6.32;2.72;;;;;;;;;;8404839;28;21705;-89
2023/06/12 10:55:32;;;;;;;8.20;2.50;;;;;;;;;;8394330;28;20064;-90
2023/06/12 10:59:38;;;;;;;4.43;2.40;;;;;;;;;;8398604;28;20075;-90
2023/06/12 11:03:47;;;;;;;3.22;1.98;;;;;;;;;;8403989;28;20078;-89
2023/06/12 11:07:54;;;;;;;13.98;2.47;;;;;;;;;;8389464;28;20056;-89
2023/06/12 11:11:59;;;;;;;3.88;2.30;;;;;;;;;;8396913;28;20041;-89
2023/06/12 11:16:09;;;;;;;5.13;2.30;;;;;;;;;;8394600;28;20041;-89
2023/06/12 11:20:29;;;;;;;2.55;1.85;;;;;;;;;;8338908;28;20074;-88
2023/06/12 11:24:35;;;;;;;4.22;2.08;;;;;;;;;;8422838;28;20083;-88
2023/06/12 11:28:38;;;;;;;4.50;2.13;;;;;;;;;;8436923;28;20369;-90
2023/06/12 11:32:45;;;;;;;6.95;2.80;;;;;;;;;;8423113;28;20044;-90
2023/06/12 11:37:25;;;;;;;3.85;2.17;;;;;;;;;;8423995;28;20064;-90
2023/06/12 11:42:13;;;;;;;3.25;1.98;;;;;;;;;;8406946;28;20052;-89
2023/06/12 11:47:26;;;;;;;6.05;2.35;;;;;;;;;;8416959;28;20060;-90
2023/06/12 11:56:00;;;;;;;4.28;2.30;;;;;;;;;;8254712;28;20063;-89
2023/06/12 12:00:21;;;;;;;6.95;2.30;;;;;;;;;;8263615;28;20114;-90
2023/06/12 12:04:46;;;;;;;5.80;1.90;;;;;;;;;;8264355;28;20054;-88
2023/06/12 12:09:28;;;;;;;4.93;2.03;;;;;;;;;;8256443;28;20066;-89
2023/06/12 12:13:52;;;;;;;2.50;1.88;;;;;;;;;;8250677;28;20043;-91
2023/06/12 12:17:59;;;;;;;5.05;2.10;;;;;;;;;;8243551;28;20113;-89
2023/06/12 12:22:31;;;;;;;3.40;1.90;;;;;;;;;;8235138;28;20114;-90
2023/06/12 12:26:54;;;;;;;3.28;1.83;;;;;;;;;;8293987;28;20467;-89
2023/06/12 12:31:01;;;;;;;4.22;2.85;;;;;;;;;;8416666;28;20041;-88
2023/06/12 12:35:29;;;;;;;2.10;1.90;;;;;;;;;;8415581;28;20048;-88
2023/06/12 12:39:54;;;;;;;4.22;1.98;;;;;;;;;;8429502;28;20063;-89
2023/06/12 12:44:01;;;;;;;4.22;1.92;;;;;;;;;;8423704;28;20049;-89
2023/06/12 12:48:15;;;;;;;4.72;1.77;;;;;;;;;;8421624;28;20416;-89
2023/06/12 12:57:17;;;;;;;2.60;1.90;;;;;;;;;;8259936;28;20051;-89
2023/06/12 13:01:40;;;;;;;3.72;2.10;;;;;;;;;;8343579;28;20057;-89
2023/06/12 13:05:45;;;;;;;6.25;2.05;;;;;;;;;;8333377;28;20698;-88
2023/06/12 13:10:31;;;;;;;2.83;2.03;;;;;;;;;;8344509;28;20083;-93
2023/06/12 13:19:23;;;;;;;2.95;1.90;;;;;;;;;;8250781;28;20062;-90
2023/06/12 13:23:28;;;;;;;4.88;2.40;;;;;;;;;;8254772;28;20062;-90
2023/06/12 13:27:36;;;;;;;3.10;2.17;;;;;;;;;;8233792;28;20046;-89
2023/06/12 13:31:42;;;;;;;3.42;1.77;;;;;;;;;;8348831;28;20041;-89
2023/06/12 13:35:51;;;;;;;2.10;1.90;;;;;;;;;;8357605;28;20053;-90
2023/06/12 13:39:55;;;;;;;3.58;2.00;;;;;;;;;;8358750;28;20540;-90
2023/06/12 13:44:00;;;;;;;3.83;1.65;;;;;;;;;;8325546;28;20076;-89
2023/06/12 13:48:04;;;;;;;3.40;2.00;;;;;;;;;;8323801;28;20084;-88
2023/06/12 13:52:09;;;;;;;3.45;1.83;;;;;;;;;;8372766;28;20049;-89
2023/06/12 13:56:13;;;;;;;3.28;1.95;;;;;;;;;;8399976;28;20056;-88
2023/06/12 14:00:19;;;;;;;6.70;2.10;;;;;;;;;;8387147;28;20364;-90
2023/06/12 14:04:27;;;;;;;3.00;1.92;;;;;;;;;;8396232;28;20082;-88
2023/06/12 14:08:33;;;;;;;3.35;1.90;;;;;;;;;;8396092;28;20072;-88
2023/06/12 14:12:39;;;;;;;2.92;1.70;;;;;;;;;;8392924;28;20079;-89
2023/06/12 14:16:48;;;;;;;2.97;1.95;;;;;;;;;;8399703;28;20056;-89
2023/06/12 14:21:01;;;;;;;3.08;1.98;;;;;;;;;;8407899;28;20270;-89
2023/06/12 14:25:10;;;;;;;2.58;1.70;;;;;;;;;;8407559;28;20049;-88
2023/06/12 14:29:20;;;;;;;4.88;1.98;;;;;;;;;;8399017;28;20044;-92
2023/06/12 14:33:27;;;;;;;6.78;2.10;;;;;;;;;;8392984;28;20066;-90
2023/06/12 14:37:31;;;;;;;4.10;1.95;;;;;;;;;;8391903;28;20052;-89
2023/06/12 14:41:34;;;;;;;2.45;1.85;;;;;;;;;;8398603;28;20048;-88
2023/06/12 14:45:37;;;;;;;6.00;2.10;;;;;;;;;;8406615;28;20070;-89
2023/06/12 14:49:42;;;;;;;2.90;1.80;;;;;;;;;;8403942;28;20100;-89
2023/06/12 14:53:44;;;;;;;2.97;1.88;;;;;;;;;;8390362;28;20048;-88
2023/06/12 14:57:51;;;;;;;2.90;2.03;;;;;;;;;;8407597;28;20045;-90
2023/06/12 15:02:12;;;;;;;5.05;2.00;;;;;;;;;;8456733;28;20044;-89
2023/06/12 15:06:18;;;;;;;2.67;1.80;;;;;;;;;;8424689;28;20036;-88
2023/06/12 15:10:25;;;;;;;6.93;2.17;;;;;;;;;;8398950;28;20041;-88
2023/06/12 15:14:33;;;;;;;4.20;2.05;;;;;;;;;;8422098;28;20052;-88
2023/06/12 15:18:38;;;;;;;2.40;1.80;;;;;;;;;;8421844;28;20134;-88
2023/06/12 15:22:46;;;;;;;5.80;2.00;;;;;;;;;;8434346;28;20032;-90
2023/06/12 15:31:39;;;;;;;10.23;3.05;;;;;;;;;;8318030;28;20049;-90
2023/06/12 15:35:57;;;;;;;6.75;1.90;;;;;;;;;;8334916;28;20153;-90
2023/06/12 15:45:55;;;;;;;6.68;2.47;;;;;;;;;;8223191;29;20062;-89
2023/06/12 15:50:16;;;;;;;4.10;2.20;;;;;;;;;;8185249;29;20051;-89
2023/06/12 15:59:55;;;;;;;3.85;1.80;;;;;;;;;;8088223;29;20112;-89
2023/06/12 16:04:30;;;;;;;5.00;1.90;;;;;;;;;;8129977;29;20063;-89
2023/06/12 16:09:18;;;;;;;4.05;2.30;;;;;;;;;;8208597;28;20063;-89
2023/06/12 16:19:12;;;;;;;4.20;1.83;;;;;;;;;;8135143;29;20075;-88
2023/06/12 16:23:30;;;;;;;3.50;2.08;;;;;;;;;;8171029;29;20084;-89
2023/06/12 16:27:55;;;;;;;3.15;1.85;;;;;;;;;;8109315;29;20085;-89
2023/06/12 16:32:02;;;;;;;7.00;2.30;;;;;;;;;;8158875;28;20055;-88
2023/06/12 16:36:29;;;;;;;5.00;2.00;;;;;;;;;;8312971;28;20091;-89
2023/06/12 16:40:48;;;;;;;2.60;1.80;;;;;;;;;;8318937;28;20060;-89
2023/06/12 16:44:51;;;;;;;9.18;3.90;;;;;;;;;;8320929;28;20041;-88
2023/06/12 16:49:13;;;;;;;7.85;4.35;;;;;;;;;;8340409;28;20049;-90
2023/06/12 16:53:16;;;;;;;7.28;4.65;;;;;;;;;;8334204;28;20465;-89
2023/06/12 16:57:22;;;;;;;13.35;9.40;;;;;;;;;;8403245;28;20041;-90
2023/06/12 17:01:25;;;;;;;11.00;5.05;;;;;;;;;;8403656;28;20389;-89
2023/06/12 17:05:33;;;;;;;9.00;3.90;;;;;;;;;;8397414;28;20055;-90
2023/06/12 17:09:40;;;;;;;12.95;7.95;;;;;;;;;;8404342;28;20051;-89
2023/06/12 17:13:46;;;;;;;6.50;3.42;;;;;;;;;;8406372;28;20048;-89
2023/06/12 17:17:59;;;;;;;6.55;3.95;;;;;;;;;;8393040;28;20059;-90
2023/06/12 17:22:27;;;;;;;11.25;5.47;;;;;;;;;;8338786;28;20307;-87
2023/06/12 17:26:30;;;;;;;6.28;4.10;;;;;;;;;;8391198;28;20051;-89
2023/06/12 17:30:39;;;;;;;6.43;3.05;;;;;;;;;;8396064;28;20044;-89
2023/06/12 17:35:07;;;;;;;5.20;3.70;;;;;;;;;;8393542;28;20071;-89
2023/06/12 17:39:29;;;;;;;38.58;12.02;;;;;;;;;;8367620;28;20053;-89
2023/06/12 17:43:39;;;;;;;20.27;5.95;;;;;;;;;;8392226;28;20045;-89
2023/06/12 17:52:13;;;;;;;15.15;6.00;;;;;;;;;;8402734;28;20052;-89
2023/06/12 17:56:34;;;;;;;31.97;12.73;;;;;;;;;;8371529;28;20712;-88
2023/06/12 18:00:37;;;;;;;37.65;14.38;;;;;;;;;;8396434;28;20313;-88
2023/06/12 18:04:51;;;;;;;60.42;27.73;;;;;;;;;;8402552;28;20071;-89
2023/06/12 18:08:55;;;;;;;34.00;22.17;;;;;;;;;;8369789;28;20052;-88
2023/06/12 18:13:02;;;;;;;31.02;9.15;;;;;;;;;;8398506;28;20051;-88
2023/06/12 18:17:13;;;;;;;49.70;13.23;;;;;;;;;;8398187;28;20122;-90
2023/06/12 18:21:18;;;;;;;18.02;6.20;;;;;;;;;;8390115;28;20044;-87
2023/06/12 18:25:23;;;;;;;17.77;8.88;;;;;;;;;;8409534;28;20052;-88
2023/06/12 18:29:42;;;;;;;48.97;19.80;;;;;;;;;;8393365;28;20040;-89
2023/06/12 18:33:49;;;;;;;20.80;6.78;;;;;;;;;;8407707;28;20044;-89
2023/06/12 18:37:56;;;;;;;14.40;4.68;;;;;;;;;;8413066;28;20116;-89
2023/06/12 18:42:01;;;;;;;13.07;5.03;;;;;;;;;;8388656;28;20052;-90
2023/06/12 18:46:11;;;;;;;14.63;7.05;;;;;;;;;;8411593;28;20104;-88
2023/06/12 18:50:15;;;;;;;11.27;5.65;;;;;;;;;;8407344;28;20047;-89
2023/06/12 18:54:24;;;;;;;19.77;7.38;;;;;;;;;;8401200;28;20083;-88
2023/06/12 18:58:38;;;;;;;6.15;3.20;;;;;;;;;;8383489;28;20109;-89
2023/06/12 19:02:45;;;;;;;20.15;7.72;;;;;;;;;;8365937;28;20051;-88
2023/06/12 19:06:54;;;;;;;13.90;4.75;;;;;;;;;;8392234;28;20130;-88
2023/06/12 19:11:30;;;;;;;11.93;6.07;;;;;;;;;;8386953;28;20552;-88
2023/06/12 19:15:37;;;;;;;10.23;4.60;;;;;;;;;;8403373;28;20055;-88
2023/06/12 19:19:51;;;;;;;8.35;5.70;;;;;;;;;;8407868;28;20040;-89
2023/06/12 19:24:11;;;;;;;32.50;10.43;;;;;;;;;;8399989;28;20044;-88
2023/06/12 19:28:36;;;;;;;8.00;4.47;;;;;;;;;;8403845;28;20079;-88
2023/06/12 19:32:43;;;;;;;6.38;3.53;;;;;;;;;;8396685;28;20048;-87
2023/06/12 19:36:48;;;;;;;10.77;4.60;;;;;;;;;;8409880;28;20533;-87
2023/06/12 19:40:59;;;;;;;6.28;3.03;;;;;;;;;;8434863;28;20048;-88
2023/06/12 19:45:04;;;;;;;9.15;3.90;;;;;;;;;;8392731;28;20733;-87
2023/06/12 19:49:08;;;;;;;7.78;3.88;;;;;;;;;;8416270;28;20051;-87
2023/06/12 19:53:15;;;;;;;25.90;8.00;;;;;;;;;;8419000;28;20045;-88
2023/06/12 19:57:21;;;;;;;9.98;3.67;;;;;;;;;;8427677;28;20048;-88
2023/06/12 20:01:27;;;;;;;8.98;4.30;;;;;;;;;;8412323;28;20492;-88
2023/06/12 20:05:35;;;;;;;7.47;4.30;;;;;;;;;;8385802;28;20094;-88
2023/06/12 20:09:40;;;;;;;8.88;4.38;;;;;;;;;;8400522;28;20044;-87
2023/06/12 20:13:44;;;;;;;10.40;4.38;;;;;;;;;;8396573;28;20101;-87
2023/06/12 20:17:46;;;;;;;9.10;4.85;;;;;;;;;;8395397;28;20049;-87
2023/06/12 20:21:53;;;;;;;12.15;4.25;;;;;;;;;;8395424;28;20128;-87
2023/06/12 20:25:57;;;;;;;44.45;11.48;;;;;;;;;;8405590;28;20069;-87
2023/06/12 20:30:00;;;;;;;4.45;2.90;;;;;;;;;;8407651;28;20044;-87
2023/06/12 20:34:03;;;;;;;6.95;3.08;;;;;;;;;;8434101;28;20056;-87
2023/06/12 20:38:06;;;;;;;4.10;2.58;;;;;;;;;;8403585;28;20765;-87
2023/06/12 20:42:13;;;;;;;4.93;2.50;;;;;;;;;;8423594;28;20498;-87
2023/06/12 20:46:25;;;;;;;4.35;2.70;;;;;;;;;;8436227;28;20075;-87
2023/06/12 20:50:28;;;;;;;4.45;2.70;;;;;;;;;;8435318;28;20130;-87
2023/06/12 20:54:31;;;;;;;3.78;2.50;;;;;;;;;;8398244;28;20411;-87
2023/06/12 20:58:36;;;;;;;9.98;3.38;;;;;;;;;;8429181;28;20035;-87
2023/06/12 21:02:39;;;;;;;5.50;2.55;;;;;;;;;;8434873;28;20492;-87
2023/06/12 21:06:42;;;;;;;5.03;2.70;;;;;;;;;;8408075;28;20072;-87
2023/06/12 21:10:45;;;;;;;4.50;2.45;;;;;;;;;;8430479;28;20024;-87
2023/06/12 21:14:51;;;;;;;3.92;2.45;;;;;;;;;;8416270;28;20492;-86
2023/06/12 21:18:56;;;;;;;8.95;2.50;;;;;;;;;;8423436;28;20043;-87
2023/06/12 21:23:02;;;;;;;4.15;2.33;;;;;;;;;;8434125;28;20416;-86
2023/06/12 21:27:06;;;;;;;10.93;4.63;;;;;;;;;;8427406;28;20420;-87
2023/06/12 21:31:11;;;;;;;4.82;2.38;;;;;;;;;;8416679;28;20071;-87
2023/06/12 21:35:14;;;;;;;5.90;2.60;;;;;;;;;;8425603;28;20474;-87
2023/06/12 21:39:19;;;;;;;5.20;2.65;;;;;;;;;;8428129;28;20083;-88
2023/06/12 21:43:24;;;;;;;5.40;2.67;;;;;;;;;;8401243;28;20045;-87
2023/06/12 21:47:28;;;;;;;5.05;2.75;;;;;;;;;;8401512;28;20093;-88
2023/06/12 21:51:31;;;;;;;4.90;2.70;;;;;;;;;;8428239;28;20051;-86
2023/06/12 21:55:34;;;;;;;5.25;2.75;;;;;;;;;;8422431;28;20544;-87
2023/06/12 21:59:39;;;;;;;8.88;3.53;;;;;;;;;;8434246;28;20051;-87
2023/06/12 22:03:44;;;;;;;5.65;3.10;;;;;;;;;;8411704;28;20460;-87
2023/06/12 22:07:51;;;;;;;8.50;3.60;;;;;;;;;;8396642;28;20397;-87
2023/06/12 22:11:54;;;;;;;12.23;4.47;;;;;;;;;;8412624;28;20063;-87
2023/06/12 22:15:58;;;;;;;9.18;3.78;;;;;;;;;;8415254;28;20466;-87
2023/06/12 22:20:03;;;;;;;8.77;3.70;;;;;;;;;;8414788;28;20048;-87
2023/06/12 22:24:10;;;;;;;7.10;3.33;;;;;;;;;;8427043;28;20039;-87
2023/06/12 22:28:17;;;;;;;6.57;3.40;;;;;;;;;;8415205;28;20044;-86
2023/06/12 22:32:20;;;;;;;5.85;3.15;;;;;;;;;;8430220;28;20055;-87
2023/06/12 22:36:25;;;;;;;7.18;4.10;;;;;;;;;;8432816;28;20123;-86
2023/06/12 22:40:28;;;;;;;7.25;3.28;;;;;;;;;;8421827;28;20060;-87
2023/06/12 22:44:31;;;;;;;6.88;3.55;;;;;;;;;;8436783;28;20044;-87
2023/06/12 22:48:36;;;;;;;5.47;3.17;;;;;;;;;;8422377;28;20086;-87
2023/06/12 22:52:41;;;;;;;5.82;3.35;;;;;;;;;;8425177;28;20216;-86
2023/06/12 22:56:45;;;;;;;10.35;3.67;;;;;;;;;;8416511;28;20468;-86
2023/06/12 23:00:48;;;;;;;10.65;3.90;;;;;;;;;;8420980;28;20064;-86
2023/06/12 23:04:52;;;;;;;7.68;3.88;;;;;;;;;;8436614;28;20048;-89
2023/06/12 23:08:59;;;;;;;11.45;4.50;;;;;;;;;;8440916;28;20550;-86
2023/06/12 23:13:02;;;;;;;9.23;4.05;;;;;;;;;;8425984;28;20462;-86
2023/06/12 23:17:06;;;;;;;8.88;4.03;;;;;;;;;;8425345;28;20044;-86
2023/06/12 23:21:09;;;;;;;9.68;4.40;;;;;;;;;;8439080;28;20059;-87
2023/06/12 23:25:17;;;;;;;11.98;4.60;;;;;;;;;;8425686;28;20150;-86
2023/06/12 23:29:20;;;;;;;13.65;4.40;;;;;;;;;;8434068;28;20068;-87
2023/06/12 23:33:23;;;;;;;7.95;3.95;;;;;;;;;;8405301;28;20040;-86
2023/06/12 23:37:26;;;;;;;11.20;4.55;;;;;;;;;;8435322;28;20059;-87
2023/06/12 23:41:33;;;;;;;7.82;3.97;;;;;;;;;;8438201;28;20066;-87
2023/06/12 23:45:36;;;;;;;9.10;3.72;;;;;;;;;;8424896;28;20078;-87
2023/06/12 23:49:39;;;;;;;8.90;4.10;;;;;;;;;;8420676;28;20389;-86
2023/06/12 23:53:42;;;;;;;8.75;4.50;;;;;;;;;;8402502;28;20144;-86
2023/06/12 23:57:47;;;;;;;9.73;4.35;;;;;;;;;;8401169;28;20120;-86
